createdAt,value
2022-10-02T00:02:32.981Z,6.03
2022-10-02T00:05:05.226Z,6.40
2022-10-02T00:07:49.954Z,6.40
2022-10-02T00:10:20.088Z,7.63
2022-10-02T00:12:53.049Z,6.97
2022-10-02T00:15:25.769Z,6.77
2022-10-02T00:17:56.451Z,7.13
2022-10-02T00:20:31.287Z,7.53
2022-10-02T00:23:14.821Z,7.43
2022-10-02T00:26:06.219Z,7.90
2022-10-02T00:28:47.363Z,7.77
2022-10-02T00:31:26.191Z,8.33
2022-10-02T00:34:21.739Z,9.00
2022-10-02T00:37:20.814Z,8.90
2022-10-02T00:40:39.867Z,8.47
2022-10-02T00:43:18.743Z,9.27
2022-10-02T00:46:20.823Z,10.17
2022-10-02T00:49:11.244Z,8.80
2022-10-02T00:51:45.221Z,9.57
2022-10-02T00:54:48.376Z,9.73
2022-10-02T00:57:37.021Z,9.33
2022-10-02T01:00:14.608Z,9.50
2022-10-02T01:02:41.290Z,9.80
2022-10-02T01:05:09.161Z,9.27
2022-10-02T01:07:42.131Z,9.73
2022-10-02T01:10:13.587Z,8.43
2022-10-02T01:12:40.632Z,9.43
2022-10-02T01:15:15.948Z,9.93
2022-10-02T01:17:43.182Z,9.77
2022-10-02T01:20:19.385Z,10.23
2022-10-02T01:23:19.900Z,9.50
2022-10-02T01:25:47.052Z,9.80
2022-10-02T01:28:14.123Z,9.37
2022-10-02T01:30:43.796Z,10.00
2022-10-02T01:33:12.435Z,9.50
2022-10-02T01:35:39.811Z,9.03
2022-10-02T01:38:12.364Z,8.53
2022-10-02T01:40:40.838Z,8.87
2022-10-02T01:43:22.027Z,9.20
2022-10-02T01:46:11.257Z,8.87
2022-10-02T01:49:02.824Z,8.30
2022-10-02T01:52:02.830Z,7.43
2022-10-02T01:54:58.528Z,7.73
2022-10-02T01:57:43.356Z,7.50
2022-10-02T02:00:19.211Z,8.67
2022-10-02T02:02:49.313Z,8.00
2022-10-02T02:05:43.851Z,8.30
2022-10-02T02:08:42.555Z,7.77
2022-10-02T02:11:12.381Z,6.87
2022-10-02T02:13:48.296Z,7.17
2022-10-02T02:16:27.637Z,6.60
2022-10-02T02:19:05.015Z,7.40
2022-10-02T02:21:58.755Z,6.40
2022-10-02T02:24:37.727Z,6.77
2022-10-02T02:27:06.053Z,7.53
2022-10-02T02:29:37.251Z,7.00
2022-10-02T02:32:08.526Z,6.27
2022-10-02T02:34:46.901Z,6.07
2022-10-02T02:37:19.226Z,6.90
2022-10-02T02:40:17.270Z,6.67
2022-10-02T02:42:56.430Z,6.13
2022-10-02T02:45:29.765Z,7.70
2022-10-02T02:48:02.546Z,7.40
2022-10-02T02:50:41.421Z,7.67
2022-10-02T02:53:20.762Z,7.70
2022-10-02T02:56:00.675Z,6.73
2022-10-02T02:58:34.275Z,7.70
2022-10-02T03:01:01.156Z,7.57
2022-10-02T03:03:27.958Z,7.73
2022-10-02T03:06:03.289Z,8.00
2022-10-02T03:08:35.310Z,7.80
2022-10-02T03:11:41.954Z,7.33
2022-10-02T03:14:29.172Z,7.27
2022-10-02T03:17:31.211Z,7.30
2022-10-02T03:20:36.452Z,7.03
2022-10-02T03:23:47.936Z,6.90
2022-10-02T03:26:38.527Z,8.00
2022-10-02T03:29:12.256Z,7.90
2022-10-02T03:31:40.445Z,8.17
2022-10-02T03:34:08.109Z,7.63
2022-10-02T03:36:35.526Z,7.47
2022-10-02T03:39:25.232Z,7.67
2022-10-02T03:41:52.330Z,8.10
2022-10-02T03:44:19.048Z,8.80
2022-10-02T03:46:46.055Z,9.80
2022-10-02T03:49:12.812Z,9.10
2022-10-02T03:51:39.598Z,10.40
2022-10-02T03:54:17.671Z,10.40
2022-10-02T03:56:56.922Z,10.50
2022-10-02T03:59:46.600Z,10.40
2022-10-02T04:02:19.866Z,10.57
2022-10-02T04:04:54.466Z,10.57
2022-10-02T04:07:28.880Z,10.80
2022-10-02T04:10:21.893Z,11.60
2022-10-02T04:12:53.281Z,10.50
2022-10-02T04:15:23.234Z,10.03
2022-10-02T04:18:25.162Z,11.43
2022-10-02T04:21:13.991Z,11.77
2022-10-02T04:23:55.150Z,10.37
2022-10-02T04:26:35.652Z,10.93
2022-10-02T04:29:25.247Z,10.63
2022-10-02T04:31:55.760Z,11.40
2022-10-02T04:34:22.601Z,11.67
2022-10-02T04:37:01.472Z,12.83
2022-10-02T04:39:46.824Z,12.53
2022-10-02T04:42:41.616Z,12.60
2022-10-02T04:45:37.942Z,12.53
2022-10-02T04:48:25.748Z,12.70
2022-10-02T04:51:05.723Z,13.07
2022-10-02T04:53:50.514Z,13.07
2022-10-02T04:56:20.344Z,13.33
2022-10-02T04:59:01.880Z,12.63
2022-10-02T05:01:28.759Z,12.57
2022-10-02T05:04:14.000Z,13.20
2022-10-02T05:07:06.293Z,11.93
2022-10-02T05:09:44.985Z,12.30
2022-10-02T05:12:30.466Z,12.40
2022-10-02T05:15:20.358Z,12.77
2022-10-02T05:18:02.111Z,12.03
2022-10-02T05:20:54.997Z,12.77
2022-10-02T05:23:36.761Z,12.67
2022-10-02T05:26:28.520Z,13.73
2022-10-02T05:29:09.733Z,13.57
2022-10-02T05:31:52.737Z,14.47
2022-10-02T05:34:31.247Z,15.33
2022-10-02T05:37:14.362Z,16.27
2022-10-02T05:40:02.433Z,17.53
2022-10-02T05:42:43.152Z,18.13
2022-10-02T05:45:27.694Z,19.07
2022-10-02T05:48:06.378Z,19.23
2022-10-02T05:50:36.788Z,19.20
2022-10-02T05:53:34.558Z,18.50
2022-10-02T05:56:16.245Z,20.57
2022-10-02T05:58:54.579Z,19.17
2022-10-02T06:01:35.892Z,20.23
2022-10-02T06:04:32.111Z,20.83
2022-10-02T06:07:08.069Z,20.33
2022-10-02T06:09:43.219Z,21.93
2022-10-02T06:12:14.910Z,23.27
2022-10-02T06:14:50.989Z,20.57
2022-10-02T06:17:20.636Z,21.13
2022-10-02T06:20:19.485Z,22.87
2022-10-02T06:22:55.355Z,19.83
2022-10-02T06:25:29.909Z,23.13
2022-10-02T06:28:16.997Z,21.20
2022-10-02T06:30:49.633Z,21.73
2022-10-02T06:33:29.480Z,21.40
2022-10-02T06:36:08.461Z,21.60
2022-10-02T06:39:05.694Z,21.27
2022-10-02T06:41:41.221Z,19.03
2022-10-02T06:44:19.972Z,20.40
2022-10-02T06:46:58.274Z,19.27
2022-10-02T06:49:47.311Z,18.87
2022-10-02T06:52:54.316Z,17.30
2022-10-02T06:55:40.808Z,17.90
2022-10-02T06:58:23.194Z,18.30
2022-10-02T07:01:10.540Z,19.60
2022-10-02T07:03:58.831Z,19.33
2022-10-02T07:06:56.497Z,19.30
2022-10-02T07:09:42.062Z,19.83
2022-10-02T07:12:32.167Z,20.73
2022-10-02T07:15:22.003Z,20.37
2022-10-02T07:17:54.187Z,19.10
2022-10-02T07:20:23.888Z,20.30
2022-10-02T07:23:16.297Z,19.20
2022-10-02T07:26:07.098Z,18.10
2022-10-02T07:29:11.258Z,17.47
2022-10-02T07:32:17.853Z,15.63
2022-10-02T07:34:56.517Z,14.53
2022-10-02T07:37:42.218Z,14.77
2022-10-02T07:40:28.877Z,12.73
2022-10-02T07:43:09.978Z,13.77
2022-10-02T07:45:42.169Z,13.83
2022-10-02T07:48:33.968Z,12.83
2022-10-02T07:51:42.949Z,12.40
2022-10-02T07:54:15.974Z,13.00
2022-10-02T07:56:45.698Z,11.43
2022-10-02T07:59:16.588Z,11.23
2022-10-02T08:01:46.596Z,9.87
2022-10-02T08:04:36.875Z,11.10
2022-10-02T08:07:05.246Z,10.47
2022-10-02T08:09:39.495Z,9.60
2022-10-02T08:12:29.310Z,9.40
2022-10-02T08:14:58.619Z,9.63
2022-10-02T08:17:50.001Z,9.70
2022-10-02T08:20:16.976Z,9.40
2022-10-02T08:22:48.891Z,9.03
2022-10-02T08:25:26.884Z,9.13
2022-10-02T08:28:20.242Z,9.57
2022-10-02T08:30:47.202Z,8.20
2022-10-02T08:33:22.721Z,9.03
2022-10-02T08:36:19.824Z,8.60
2022-10-02T08:38:57.340Z,7.20
2022-10-02T08:41:24.233Z,7.10
2022-10-02T08:44:34.152Z,7.53
2022-10-02T08:47:33.047Z,6.53
2022-10-02T08:50:14.926Z,6.43
2022-10-02T08:53:09.543Z,6.80
2022-10-02T08:55:58.993Z,6.03
2022-10-02T08:59:07.032Z,6.33
2022-10-02T09:02:00.097Z,5.63
2022-10-02T09:04:41.947Z,6.20
2022-10-02T09:07:17.482Z,6.83
2022-10-02T09:09:46.935Z,5.07
2022-10-02T09:12:41.494Z,6.03
2022-10-02T09:15:47.175Z,6.73
2022-10-02T09:18:51.592Z,6.90
2022-10-02T09:21:39.650Z,6.03
2022-10-02T09:24:12.099Z,5.50
2022-10-02T09:27:00.638Z,5.40
2022-10-02T09:29:58.854Z,5.77
2022-10-02T09:32:43.154Z,5.27
2022-10-02T09:35:34.093Z,5.23
2022-10-02T09:38:29.592Z,5.40
2022-10-02T09:41:05.293Z,5.00
2022-10-02T09:44:08.238Z,4.87
2022-10-02T09:47:08.596Z,4.73
2022-10-02T09:50:19.251Z,4.30
2022-10-02T09:53:12.164Z,4.43
2022-10-02T09:55:53.732Z,5.20
2022-10-02T09:58:26.348Z,4.67
2022-10-02T10:01:14.705Z,4.30
2022-10-02T10:04:18.972Z,4.00
2022-10-02T10:06:57.950Z,4.97
2022-10-02T10:09:57.722Z,4.37
2022-10-02T10:12:43.474Z,4.67
2022-10-02T10:15:43.999Z,5.10
2022-10-02T10:18:42.870Z,3.57
2022-10-02T10:21:47.300Z,3.90
2022-10-02T10:24:17.050Z,3.37
2022-10-02T10:27:22.831Z,3.20
2022-10-02T10:30:11.204Z,3.40
2022-10-02T10:32:41.122Z,2.70
2022-10-02T10:35:16.852Z,3.40
2022-10-02T10:38:02.158Z,2.80
2022-10-02T10:41:03.300Z,3.40
2022-10-02T10:43:51.347Z,3.07
2022-10-02T10:46:35.236Z,2.50
2022-10-02T10:49:26.464Z,2.70
2022-10-02T10:52:23.099Z,3.33
2022-10-02T10:54:55.235Z,2.87
2022-10-02T10:57:51.359Z,3.00
2022-10-02T11:00:26.518Z,2.73
2022-10-02T11:03:15.378Z,2.50
2022-10-02T11:05:52.074Z,2.83
2022-10-02T11:08:39.696Z,3.00
2022-10-02T11:11:19.873Z,2.90
2022-10-02T11:14:07.652Z,3.10
2022-10-02T11:16:41.568Z,3.23
2022-10-02T11:19:21.506Z,2.73
2022-10-02T11:22:15.550Z,2.77
2022-10-02T11:25:02.014Z,2.70
2022-10-02T11:27:37.569Z,2.40
2022-10-02T11:30:22.057Z,2.53
2022-10-02T11:33:08.767Z,2.37
2022-10-02T11:36:04.870Z,2.10
2022-10-02T11:39:00.862Z,2.47
2022-10-02T11:41:43.727Z,2.23
2022-10-02T11:44:23.252Z,2.30
2022-10-02T11:47:28.748Z,2.73
2022-10-02T11:50:13.205Z,2.90
2022-10-02T11:53:18.904Z,2.33
2022-10-02T11:56:15.224Z,2.70
2022-10-02T11:59:10.609Z,2.30
2022-10-02T12:01:56.129Z,2.10
2022-10-02T12:04:40.710Z,2.27
2022-10-02T12:07:22.271Z,2.10
2022-10-02T12:10:14.157Z,2.43
2022-10-02T12:12:43.740Z,2.20
2022-10-02T12:15:36.368Z,2.00
2022-10-02T12:18:22.240Z,1.70
2022-10-02T12:21:39.495Z,1.93
2022-10-02T12:24:59.228Z,1.80
2022-10-02T12:27:31.762Z,1.60
2022-10-02T12:30:22.522Z,1.83
2022-10-02T12:33:01.485Z,1.83
2022-10-02T12:35:58.610Z,2.07
2022-10-02T12:38:37.690Z,1.87
2022-10-02T12:41:24.252Z,1.90
2022-10-02T12:44:22.035Z,1.63
2022-10-02T12:47:13.295Z,1.60
2022-10-02T12:49:50.802Z,1.63
2022-10-02T12:52:40.626Z,1.37
2022-10-02T12:55:16.479Z,1.53
2022-10-02T12:58:04.696Z,1.73
2022-10-02T13:00:40.336Z,1.50
2022-10-02T13:03:36.648Z,1.60
2022-10-02T13:06:10.780Z,1.30
2022-10-02T13:08:41.516Z,1.67
2022-10-02T13:11:14.021Z,1.80
2022-10-02T13:13:49.540Z,1.90
2022-10-02T13:16:31.614Z,1.40
2022-10-02T13:19:30.510Z,1.63
2022-10-02T13:22:19.931Z,1.80
2022-10-02T13:25:01.459Z,1.80
2022-10-02T13:27:51.232Z,1.70
2022-10-02T13:30:23.948Z,1.63
2022-10-02T13:33:04.428Z,1.90
2022-10-02T13:35:36.767Z,1.30
2022-10-02T13:38:24.307Z,1.20
2022-10-02T13:41:09.091Z,0.80
2022-10-02T13:44:01.448Z,1.23
2022-10-02T13:46:51.953Z,1.50
2022-10-02T13:49:32.765Z,1.53
2022-10-02T13:52:25.729Z,2.20
2022-10-02T13:55:12.953Z,1.63
2022-10-02T13:58:11.500Z,1.13
2022-10-02T14:00:38.464Z,1.70
2022-10-02T14:03:21.032Z,1.50
2022-10-02T14:05:58.060Z,1.80
2022-10-02T14:08:27.901Z,2.37
2022-10-02T14:11:22.621Z,1.73
2022-10-02T14:14:03.134Z,2.03
2022-10-02T14:16:47.532Z,1.87
2022-10-02T14:19:29.203Z,1.53
2022-10-02T14:22:34.143Z,1.90
2022-10-02T14:25:07.158Z,1.13
2022-10-02T14:28:08.086Z,1.20
2022-10-02T14:30:50.205Z,1.67
2022-10-02T14:33:36.354Z,1.30
2022-10-02T14:36:20.448Z,1.57
2022-10-02T14:39:17.799Z,1.80
2022-10-02T14:42:01.412Z,3.10
2022-10-02T14:44:34.412Z,1.90
2022-10-02T14:47:19.166Z,1.57
2022-10-02T14:50:11.119Z,14.37
2022-10-02T14:52:51.629Z,1.63
2022-10-02T14:55:21.253Z,1.60
2022-10-02T14:57:56.920Z,1.67
2022-10-02T15:00:25.544Z,1.83
2022-10-02T15:03:17.818Z,1.83
2022-10-02T15:06:02.059Z,2.37
2022-10-02T15:08:39.761Z,2.10
2022-10-02T15:11:21.240Z,1.60
2022-10-02T15:13:57.714Z,1.50
2022-10-02T15:16:59.759Z,1.50
2022-10-02T15:19:39.026Z,1.53
2022-10-02T15:22:19.387Z,1.57
2022-10-02T15:24:58.780Z,1.90
2022-10-02T15:27:43.061Z,1.80
2022-10-02T15:30:13.483Z,1.63
2022-10-02T15:33:11.265Z,1.80
2022-10-02T15:35:54.638Z,2.40
2022-10-02T15:38:43.161Z,2.10
2022-10-02T15:41:12.866Z,2.50
2022-10-02T15:44:10.082Z,2.73
2022-10-02T15:46:50.125Z,1.90
2022-10-02T15:49:31.039Z,2.37
2022-10-02T15:52:24.050Z,2.87
2022-10-02T15:55:27.896Z,2.00
2022-10-02T15:58:10.600Z,2.30
2022-10-02T16:01:03.989Z,2.20
2022-10-02T16:03:46.509Z,2.30
2022-10-02T16:06:38.765Z,2.73
2022-10-02T16:09:20.937Z,2.23
2022-10-02T16:12:02.774Z,2.40
2022-10-02T16:14:44.864Z,2.80
2022-10-02T16:17:29.817Z,3.20
2022-10-02T16:20:25.307Z,2.57
2022-10-02T16:23:11.988Z,2.17
2022-10-02T16:26:01.898Z,2.43
2022-10-02T16:28:55.185Z,2.57
2022-10-02T16:31:37.228Z,2.07
2022-10-02T16:34:31.297Z,2.57
2022-10-02T16:37:07.045Z,2.37
2022-10-02T16:39:43.677Z,2.07
2022-10-02T16:42:21.189Z,1.83
2022-10-02T16:45:16.102Z,2.33
2022-10-02T16:47:50.738Z,2.67
2022-10-02T16:50:44.037Z,2.27
2022-10-02T16:53:35.130Z,2.60
2022-10-02T16:56:17.867Z,2.70
2022-10-02T16:59:00.538Z,2.40
2022-10-02T17:01:53.358Z,2.43
2022-10-02T17:04:45.247Z,2.10
2022-10-02T17:07:41.314Z,2.67
2022-10-02T17:10:30.128Z,2.27
2022-10-02T17:13:23.959Z,2.10
2022-10-02T17:16:16.364Z,2.33
2022-10-02T17:18:56.432Z,1.87
2022-10-02T17:21:39.755Z,2.30
2022-10-02T17:24:38.824Z,2.43
2022-10-02T17:27:33.509Z,2.77
2022-10-02T17:30:24.320Z,2.73
2022-10-02T17:33:07.738Z,2.37
2022-10-02T17:36:12.082Z,2.80
2022-10-02T17:39:08.903Z,2.70
2022-10-02T17:41:38.519Z,2.53
2022-10-02T17:44:28.187Z,2.40
2022-10-02T17:47:17.693Z,2.00
2022-10-02T17:50:07.553Z,2.10
2022-10-02T17:53:28.747Z,2.30
2022-10-02T17:56:27.649Z,2.23
2022-10-02T17:59:00.477Z,2.57
2022-10-02T18:01:33.157Z,2.50
2022-10-02T18:04:00.071Z,2.37
2022-10-02T18:06:32.982Z,2.30
2022-10-02T18:09:08.885Z,2.20
2022-10-02T18:11:41.846Z,2.40
2022-10-02T18:14:46.741Z,2.20
2022-10-02T18:18:07.973Z,2.40
2022-10-02T18:20:43.445Z,2.10
2022-10-02T18:23:44.497Z,2.67
2022-10-02T18:26:32.755Z,2.10
2022-10-02T18:29:02.719Z,1.70
2022-10-02T18:31:54.199Z,2.73
2022-10-02T18:34:41.421Z,2.57
2022-10-02T18:37:28.951Z,2.60
2022-10-02T18:40:22.282Z,2.50
2022-10-02T18:43:18.580Z,3.03
2022-10-02T18:46:00.287Z,2.47
2022-10-02T18:48:45.218Z,2.70
2022-10-02T18:51:33.830Z,3.23
2022-10-02T18:54:22.726Z,3.00
2022-10-02T18:57:07.616Z,4.00
2022-10-02T18:59:59.762Z,3.23
2022-10-02T19:03:01.431Z,2.57
2022-10-02T19:05:36.899Z,2.60
2022-10-02T19:08:03.807Z,2.90
2022-10-02T19:10:33.662Z,3.03
2022-10-02T19:13:18.111Z,2.70
2022-10-02T19:15:47.869Z,2.33
2022-10-02T19:18:25.514Z,2.40
2022-10-02T19:21:01.637Z,2.17
2022-10-02T19:23:37.511Z,2.30
2022-10-02T19:26:28.015Z,2.60
2022-10-02T19:29:05.500Z,2.13
2022-10-02T19:31:39.637Z,2.30
2022-10-02T19:34:17.263Z,2.03
2022-10-02T19:36:50.415Z,2.17
2022-10-02T19:39:30.700Z,2.10
2022-10-02T19:42:00.721Z,2.20
2022-10-02T19:44:35.828Z,2.07
2022-10-02T19:47:15.880Z,2.67
2022-10-02T19:49:46.730Z,2.27
2022-10-02T19:52:35.993Z,2.23
2022-10-02T19:55:24.200Z,2.50
2022-10-02T19:58:06.569Z,2.70
2022-10-02T20:00:38.778Z,2.20
2022-10-02T20:03:15.017Z,2.33
2022-10-02T20:05:44.210Z,2.37
2022-10-02T20:08:36.522Z,2.73
2022-10-02T20:11:20.482Z,3.67
2022-10-02T20:13:54.795Z,2.63
2022-10-02T20:16:23.031Z,2.20
2022-10-02T20:18:51.673Z,1.83
2022-10-02T20:21:43.337Z,2.57
2022-10-02T20:24:30.340Z,2.53
2022-10-02T20:27:05.432Z,2.07
2022-10-02T20:29:39.935Z,1.70
2022-10-02T20:32:21.367Z,3.20
2022-10-02T20:34:54.592Z,2.33
2022-10-02T20:37:31.453Z,2.10
2022-10-02T20:40:11.674Z,2.30
2022-10-02T20:43:05.427Z,2.67
2022-10-02T20:45:49.613Z,2.73
2022-10-02T20:49:03.157Z,1.90
2022-10-02T20:51:52.768Z,2.47
2022-10-02T20:54:19.817Z,2.90
2022-10-02T20:57:11.348Z,2.53
2022-10-02T21:00:02.252Z,1.80
2022-10-02T21:02:55.332Z,2.63
2022-10-02T21:05:22.179Z,2.53
2022-10-02T21:08:29.962Z,2.13
2022-10-02T21:11:14.603Z,2.13
2022-10-02T21:14:06.197Z,2.37
2022-10-02T21:16:36.506Z,2.40
2022-10-02T21:19:23.761Z,3.27
2022-10-02T21:22:18.702Z,3.00
2022-10-02T21:25:18.136Z,3.03
2022-10-02T21:28:06.204Z,2.90
2022-10-02T21:30:47.139Z,2.93
2022-10-02T21:33:24.561Z,2.57
2022-10-02T21:36:27.134Z,2.63
2022-10-02T21:39:11.900Z,3.43
2022-10-02T21:42:08.912Z,2.23
2022-10-02T21:44:54.727Z,2.73
2022-10-02T21:47:43.834Z,2.37
2022-10-02T21:50:40.246Z,2.57
2022-10-02T21:53:44.506Z,3.07
2022-10-02T21:56:32.847Z,3.87
2022-10-02T21:59:11.410Z,2.60
2022-10-02T22:02:09.302Z,2.73
2022-10-02T22:04:55.524Z,2.30
2022-10-02T22:08:12.546Z,3.00
2022-10-02T22:10:55.909Z,2.47
2022-10-02T22:13:23.323Z,3.00
2022-10-02T22:15:53.806Z,2.93
2022-10-02T22:18:26.877Z,2.40
2022-10-02T22:21:12.420Z,2.40
2022-10-02T22:24:19.083Z,3.30
2022-10-02T22:26:48.644Z,2.50
2022-10-02T22:29:35.312Z,2.50
2022-10-02T22:32:42.712Z,2.67
2022-10-02T22:35:33.604Z,2.60
2022-10-02T22:38:12.582Z,2.80
2022-10-02T22:41:25.834Z,2.83
2022-10-02T22:44:21.535Z,2.70
2022-10-02T22:47:05.835Z,3.57
2022-10-02T22:49:43.222Z,3.20
2022-10-02T22:52:33.466Z,3.23
2022-10-02T22:55:06.146Z,2.93
2022-10-02T22:57:37.429Z,2.83
2022-10-02T23:00:27.487Z,3.57
2022-10-02T23:03:13.141Z,3.20
2022-10-02T23:06:00.981Z,2.90
2022-10-02T23:08:39.753Z,2.63
2022-10-02T23:11:37.181Z,2.87
2022-10-02T23:14:29.047Z,2.50
2022-10-02T23:17:02.849Z,3.27
2022-10-02T23:19:55.652Z,2.53
2022-10-02T23:22:34.787Z,2.80
2022-10-02T23:25:25.020Z,3.07
2022-10-02T23:28:17.750Z,2.63
2022-10-02T23:30:49.458Z,3.27
2022-10-02T23:33:38.992Z,3.20
2022-10-02T23:36:26.204Z,2.97
2022-10-02T23:39:04.792Z,3.13
2022-10-02T23:41:40.356Z,3.27
2022-10-02T23:44:36.677Z,3.13
2022-10-02T23:47:44.061Z,3.27
2022-10-02T23:50:22.672Z,3.90
2022-10-02T23:53:02.039Z,3.40
2022-10-02T23:55:47.646Z,4.00
2022-10-02T23:58:27.177Z,3.63
